Time;durP1;ratioP1;P1;durP2;ratioP2;P2;SDS_P1;SDS_P2;PMS_P1;PMS_P2;Temp;Humidity;BMP_temperature;BMP_pressure;BME280_temperature;BME280_humidity;BME280_pressure;Samples;Min_cycle;Max_cycle;Signal;HPM_P1;HPM_P2
2023/03/21 00:00:17;;;;;;;6.88;5.65;;;;;;;8.64;70.21;98458.75;5012399;28;20026;-73
2023/03/21 00:02:43;;;;;;;7.47;6.78;;;;;;;8.44;72.48;98452.00;5012216;28;20491;-73
2023/03/21 00:05:08;;;;;;;7.22;5.95;;;;;;;8.44;71.06;98452.81;5010366;28;20040;-73
2023/03/21 00:07:34;;;;;;;8.23;5.90;;;;;;;8.47;70.17;98446.19;5010942;28;20034;-73
2023/03/21 00:09:59;;;;;;;6.60;5.35;;;;;;;8.63;69.55;98451.78;5025512;28;20053;-72
2023/03/21 00:12:24;;;;;;;7.75;6.00;;;;;;;8.54;70.21;98444.25;5032017;28;20315;-72
2023/03/21 00:14:52;;;;;;;7.38;6.43;;;;;;;8.55;70.73;98443.19;5030066;28;20021;-72
2023/03/21 00:17:21;;;;;;;8.82;8.10;;;;;;;8.48;71.10;98442.44;5026362;28;20510;-72
2023/03/21 00:19:47;;;;;;;7.75;7.05;;;;;;;8.28;71.43;98435.44;5010698;28;20507;-72
2023/03/21 00:22:13;;;;;;;9.05;8.25;;;;;;;8.30;71.91;98436.06;4978894;28;20034;-72
2023/03/21 00:24:38;;;;;;;8.70;8.10;;;;;;;8.31;72.14;98443.03;5011509;28;20084;-72
2023/03/21 00:27:03;;;;;;;9.27;8.48;;;;;;;8.34;71.40;98442.59;4994317;28;20042;-72
2023/03/21 00:29:29;;;;;;;9.98;9.18;;;;;;;8.29;72.22;98439.78;5010771;28;20022;-74
2023/03/21 00:31:54;;;;;;;9.00;8.38;;;;;;;8.17;71.95;98430.78;5010518;28;20036;-73
2023/03/21 00:34:23;;;;;;;9.38;8.57;;;;;;;8.20;71.51;98446.44;5010158;28;20439;-73
2023/03/21 00:36:50;;;;;;;8.65;8.02;;;;;;;8.12;72.04;98444.03;5010426;28;20476;-73
2023/03/21 00:39:16;;;;;;;11.07;10.18;;;;;;;7.99;73.68;98438.84;4994237;28;20048;-73
2023/03/21 00:41:41;;;;;;;9.80;9.10;;;;;;;7.96;72.60;98433.09;5010600;28;20029;-74
2023/03/21 00:44:06;;;;;;;11.93;11.13;;;;;;;7.95;72.83;98437.66;4993998;28;20109;-74
2023/03/21 00:46:34;;;;;;;14.40;13.18;;;;;;;7.81;73.67;98436.13;5010431;28;20537;-74
2023/03/21 00:48:59;;;;;;;15.50;14.48;;;;;;;7.73;75.51;98433.72;5010523;28;20029;-73
2023/03/21 00:51:25;;;;;;;15.88;14.73;;;;;;;7.62;75.00;98426.41;5028776;28;20041;-73
2023/03/21 00:53:56;;;;;;;15.45;14.35;;;;;;;7.49;75.02;98430.00;5001833;28;20533;-73
2023/03/21 00:56:21;;;;;;;15.85;14.77;;;;;;;7.40;75.70;98422.44;4994231;28;20030;-75
2023/03/21 00:58:47;;;;;;;16.63;15.30;;;;;;;7.28;74.96;98422.34;5010502;28;20049;-74
2023/03/21 01:01:15;;;;;;;17.65;16.55;;;;;;;7.11;75.99;98423.09;5004205;28;20080;-74
2023/03/21 01:03:49;;;;;;;19.33;18.08;;;;;;;7.12;75.16;98414.03;5033629;28;20499;-73
2023/03/21 01:06:18;;;;;;;16.58;15.35;;;;;;;7.21;75.10;98412.75;5039640;23;20049;-74
2023/03/21 01:08:45;;;;;;;15.77;14.48;;;;;;;7.12;75.33;98414.03;5014786;28;20449;-76
2023/03/21 01:11:14;;;;;;;16.02;15.13;;;;;;;6.92;75.36;98409.63;5015084;28;20064;-76
2023/03/21 01:13:40;;;;;;;18.13;17.10;;;;;;;6.88;76.20;98408.41;5011988;28;20545;-74
2023/03/21 01:16:07;;;;;;;19.33;18.00;;;;;;;6.78;75.71;98405.41;5006323;28;20125;-74
2023/03/21 01:18:33;;;;;;;19.13;18.02;;;;;;;6.66;76.13;98404.44;4991947;28;20029;-74
2023/03/21 01:20:59;;;;;;;17.98;16.58;;;;;;;6.77;75.46;98401.06;4988041;28;20039;-74
2023/03/21 01:23:26;;;;;;;17.48;16.30;;;;;;;6.77;75.78;98395.72;5006557;28;20028;-74
2023/03/21 01:25:53;;;;;;;15.95;14.90;;;;;;;6.53;75.70;98393.81;5008925;28;20112;-74
2023/03/21 01:28:19;;;;;;;17.33;16.23;;;;;;;6.69;74.73;98387.13;5006418;28;20033;-74
2023/03/21 01:30:46;;;;;;;17.27;16.08;;;;;;;6.74;75.02;98395.34;5007395;28;20109;-74
2023/03/21 01:33:13;;;;;;;18.48;17.38;;;;;;;6.78;75.47;98396.53;4999764;28;20064;-75
2023/03/21 01:35:38;;;;;;;19.13;17.98;;;;;;;6.44;77.35;98395.06;5003954;28;20033;-75
2023/03/21 01:38:03;;;;;;;18.80;17.65;;;;;;;6.63;75.67;98394.16;4990010;28;20091;-74
2023/03/21 01:40:29;;;;;;;15.50;14.30;;;;;;;6.81;75.08;98383.53;5007247;28;20038;-74
2023/03/21 01:43:19;;;;;;;17.50;16.40;;;;;;;6.88;75.61;98387.00;5026095;28;20030;-75
2023/03/21 01:46:05;;;;;;;17.42;16.27;;;;;;;6.92;74.99;98396.25;5009335;28;20371;-75
2023/03/21 01:48:53;;;;;;;20.30;18.92;;;;;;;6.87;76.25;98380.00;5006692;28;20150;-75
2023/03/21 01:51:20;;;;;;;21.05;19.85;;;;;;;6.94;75.74;98380.78;5016704;28;20044;-76
2023/03/21 01:53:56;;;;;;;19.17;17.98;;;;;;;6.91;75.27;98375.84;4991909;28;20128;-75
2023/03/21 01:56:25;;;;;;;18.98;17.70;;;;;;;6.96;74.91;98384.06;5001884;28;20030;-74
2023/03/21 01:59:01;;;;;;;20.77;19.50;;;;;;;6.96;75.31;98378.72;5005057;28;20026;-74
2023/03/21 02:01:48;;;;;;;22.80;21.58;;;;;;;7.00;75.84;98379.13;5009762;28;20033;-75
2023/03/21 02:04:20;;;;;;;22.63;21.35;;;;;;;7.02;75.90;98377.03;5009881;28;20029;-75
2023/03/21 02:07:17;;;;;;;25.20;23.75;;;;;;;6.93;76.30;98363.06;5003741;28;20030;-76
2023/03/21 02:09:49;;;;;;;23.52;22.23;;;;;;;7.00;76.07;98367.56;5004010;28;20586;-76
2023/03/21 02:12:18;;;;;;;25.70;24.33;;;;;;;7.00;76.51;98356.88;5001497;28;20036;-76
2023/03/21 02:14:47;;;;;;;22.80;21.45;;;;;;;6.94;75.59;98359.38;5001491;28;20498;-76
2023/03/21 02:17:38;;;;;;;27.17;25.67;;;;;;;6.76;77.20;98361.97;5000373;28;20030;-75
2023/03/21 02:20:38;;;;;;;24.75;23.30;;;;;;;6.64;76.63;98361.03;5005883;28;20045;-75
2023/03/21 02:23:27;;;;;;;23.08;21.67;;;;;;;6.84;76.28;98348.31;4991061;28;20034;-75
2023/03/21 02:26:31;;;;;;;18.77;17.50;;;;;;;6.78;74.74;98351.88;5019379;28;20571;-75
2023/03/21 02:29:11;;;;;;;20.55;19.35;;;;;;;6.70;75.82;98346.75;5019452;28;20037;-75
2023/03/21 02:31:40;;;;;;;26.77;25.40;;;;;;;6.57;77.49;98352.22;5002933;28;20026;-74
2023/03/21 02:34:18;;;;;;;26.25;24.65;;;;;;;6.73;75.70;98357.03;5006255;28;20046;-73
2023/03/21 02:37:21;;;;;;;21.98;20.67;;;;;;;6.79;76.89;98361.53;4985165;28;20399;-75
2023/03/21 02:40:14;;;;;;;23.33;21.95;;;;;;;6.81;76.29;98356.78;4998139;28;20076;-76
2023/03/21 02:43:17;;;;;;;29.23;27.52;;;;;;;6.80;77.39;98368.53;4991749;28;20044;-75
2023/03/21 02:46:09;;;;;;;32.33;30.52;;;;;;;6.73;77.76;98365.06;5014334;28;20502;-75
2023/03/21 02:48:44;;;;;;;36.83;34.75;;;;;;;6.79;78.08;98361.53;4983766;28;20033;-75
2023/03/21 02:51:13;;;;;;;37.03;35.13;;;;;;;6.95;78.41;98365.56;5001685;28;20030;-74
2023/03/21 02:53:40;;;;;;;34.70;32.90;;;;;;;6.94;77.30;98367.41;5006017;28;20492;-75
2023/03/21 02:56:09;;;;;;;27.02;25.50;;;;;;;6.97;76.84;98368.84;4983870;28;20094;-75
2023/03/21 02:58:37;;;;;;;28.50;26.92;;;;;;;7.07;77.00;98368.34;5003371;28;20026;-76
2023/03/21 03:01:05;;;;;;;25.05;23.55;;;;;;;7.07;76.44;98363.00;5000655;28;20038;-75
2023/03/21 03:03:38;;;;;;;24.88;23.15;;;;;;;6.88;77.29;98373.59;4995011;28;20022;-76
2023/03/21 03:06:12;;;;;;;25.13;23.63;;;;;;;7.04;76.46;98363.41;4977677;28;20060;-75
2023/03/21 03:08:55;;;;;;;21.17;19.58;;;;;;;7.23;75.52;98357.09;4993442;28;20037;-75
2023/03/21 03:11:31;;;;;;;16.48;15.48;;;;;;;7.11;75.50;98356.97;5001855;28;20029;-74
2023/03/21 03:14:11;;;;;;;;;;;;;;;7.10;74.09;98362.53;5020940;28;20479;-76
2023/03/21 03:16:52;;;;;;;14.85;13.70;;;;;;;7.38;73.32;98365.59;4998814;28;19913;-75
2023/03/21 03:19:29;;;;;;;13.63;12.73;;;;;;;7.28;73.66;98355.38;4994725;28;20033;-75
2023/03/21 03:22:15;;;;;;;12.15;11.13;;;;;;;7.29;73.80;98356.19;5008427;28;20030;-74
2023/03/21 03:24:57;;;;;;;13.55;12.55;;;;;;;7.35;74.65;98355.34;5006124;28;20085;-75
2023/03/21 03:27:28;;;;;;;15.57;14.38;;;;;;;7.26;74.68;98359.34;5010261;28;20045;-75
2023/03/21 03:29:58;;;;;;;58.75;43.92;;;;;;;6.98;76.21;98355.22;5006973;28;20037;-75
2023/03/21 03:32:43;;;;;;;65.15;57.15;;;;;;;7.08;77.23;98360.09;4988169;28;20033;-75
2023/03/21 03:35:10;;;;;;;42.17;37.25;;;;;;;7.09;74.97;98359.06;5001566;28;20173;-75
2023/03/21 03:37:36;;;;;;;33.47;29.88;;;;;;;7.18;75.72;98355.06;5006711;28;20026;-75
2023/03/21 03:40:10;;;;;;;22.50;20.30;;;;;;;7.24;74.92;98353.34;4986304;28;20038;-74
2023/03/21 03:42:45;;;;;;;17.02;15.60;;;;;;;7.20;74.66;98357.53;4992196;28;20037;-75
2023/03/21 03:45:21;;;;;;;12.68;11.73;;;;;;;7.24;73.79;98348.00;4987389;28;20091;-75
2023/03/21 03:47:53;;;;;;;12.68;11.55;;;;;;;7.33;73.23;98341.31;4988617;28;20514;-75
2023/03/21 03:51:01;;;;;;;11.77;10.70;;;;;;;7.34;73.66;98342.97;5005366;28;20064;-75
2023/03/21 03:53:44;;;;;;;12.20;11.30;;;;;;;7.30;73.31;98347.13;4999909;28;20046;-75
2023/03/21 03:56:10;;;;;;;11.43;10.52;;;;;;;7.33;73.03;98346.69;4977707;28;20153;-75
2023/03/21 03:58:38;;;;;;;10.88;9.88;;;;;;;7.31;72.28;98340.72;4971455;28;20481;-76
2023/03/21 04:01:06;;;;;;;9.50;8.70;;;;;;;7.30;72.96;98337.25;4999954;28;20034;-75
2023/03/21 04:03:32;;;;;;;10.23;9.43;;;;;;;7.25;73.38;98341.63;4993173;28;20082;-75
2023/03/21 04:05:58;;;;;;;10.43;9.63;;;;;;;7.23;73.03;98331.13;4995610;28;20089;-74
2023/03/21 04:08:23;;;;;;;11.65;10.70;;;;;;;7.22;73.15;98339.38;4979314;28;20121;-74
2023/03/21 04:10:52;;;;;;;11.50;10.50;;;;;;;7.25;73.40;98336.25;5009148;28;20128;-74
2023/03/21 04:13:19;;;;;;;12.93;11.60;;;;;;;7.37;72.44;98342.53;5024143;28;20076;-74
2023/03/21 04:15:59;;;;;;;10.38;9.48;;;;;;;7.19;73.29;98329.91;5010745;28;20083;-73
2023/03/21 04:18:24;;;;;;;11.63;10.77;;;;;;;7.11;74.20;98332.88;4980555;28;20029;-73
2023/03/21 04:20:50;;;;;;;10.40;9.38;;;;;;;7.16;73.52;98329.53;4995717;28;20550;-73
2023/03/21 04:23:20;;;;;;;11.43;10.63;;;;;;;7.13;73.86;98328.13;5007859;28;20052;-75
2023/03/21 04:25:49;;;;;;;13.75;12.65;;;;;;;7.23;74.14;98327.63;4990120;28;20036;-75
2023/03/21 04:28:15;;;;;;;13.80;12.57;;;;;;;7.20;73.02;98326.22;5005948;28;20022;-75
2023/03/21 04:30:51;;;;;;;;;;;;;;;7.19;72.98;98327.22;5017019;28;20037;-75
2023/03/21 04:33:19;;;;;;;12.32;11.38;;;;;;;7.10;73.70;98319.69;4985857;28;20311;-75
2023/03/21 04:35:55;;;;;;;15.60;14.45;;;;;;;7.09;74.31;98331.47;5008565;28;20022;-74
2023/03/21 04:38:22;;;;;;;15.57;14.57;;;;;;;7.11;74.16;98332.06;5022926;28;20499;-74
2023/03/21 04:40:48;;;;;;;15.88;14.40;;;;;;;7.11;74.71;98337.41;5000936;28;20037;-75
2023/03/21 04:43:13;;;;;;;16.13;15.02;;;;;;;7.01;75.22;98342.44;5001614;28;20304;-74
2023/03/21 04:45:39;;;;;;;18.83;17.52;;;;;;;7.10;75.02;98341.13;5010850;28;20388;-73
2023/03/21 04:48:05;;;;;;;16.50;15.20;;;;;;;7.01;74.72;98337.06;4994462;28;20088;-74
2023/03/21 04:50:31;;;;;;;16.13;14.85;;;;;;;7.12;75.49;98339.06;5024514;28;20061;-73
2023/03/21 04:52:58;;;;;;;17.58;16.23;;;;;;;7.03;74.91;98343.03;5008353;28;20025;-74
2023/03/21 04:55:25;;;;;;;20.30;18.92;;;;;;;6.88;76.20;98333.44;5001884;28;20036;-75
2023/03/21 04:57:51;;;;;;;20.48;19.17;;;;;;;7.05;75.08;98333.75;4998624;28;20061;-74
2023/03/21 05:00:19;;;;;;;17.65;16.35;;;;;;;6.99;75.58;98334.63;5004391;28;20037;-76
2023/03/21 05:02:45;;;;;;;17.23;15.50;;;;;;;7.11;75.14;98338.25;5001423;28;20039;-76
2023/03/21 05:05:12;;;;;;;16.33;15.23;;;;;;;6.89;75.41;98336.97;5000813;28;20029;-77
2023/03/21 05:07:41;;;;;;;16.80;15.60;;;;;;;6.95;75.09;98333.44;5001919;28;20038;-77
2023/03/21 05:10:08;;;;;;;15.98;14.85;;;;;;;6.84;75.01;98332.25;4990081;28;20028;-77
2023/03/21 05:12:34;;;;;;;17.73;16.35;;;;;;;6.77;75.17;98326.13;5000119;28;20515;-77
2023/03/21 05:14:59;;;;;;;22.10;20.60;;;;;;;6.74;75.83;98331.94;5023233;28;20030;-77
2023/03/21 05:17:27;;;;;;;23.15;21.50;;;;;;;6.79;76.96;98340.13;4994011;28;20072;-76
2023/03/21 05:19:55;;;;;;;24.23;22.52;;;;;;;6.92;75.90;98342.72;5018959;28;20029;-76
2023/03/21 05:22:23;;;;;;;25.75;24.15;;;;;;;6.59;77.82;98339.44;5002093;28;20041;-77
2023/03/21 05:24:49;;;;;;;33.17;31.33;;;;;;;6.68;77.55;98342.66;5006421;28;20033;-74
2023/03/21 05:27:34;;;;;;;27.60;25.88;;;;;;;6.78;76.66;98343.84;4997679;28;20033;-75
2023/03/21 05:30:07;;;;;;;24.58;23.10;;;;;;;6.82;76.35;98345.03;4988416;28;20038;-73
2023/03/21 05:32:33;;;;;;;20.70;19.40;;;;;;;6.78;75.08;98343.84;5003834;28;20134;-73
2023/03/21 05:35:11;;;;;;;19.58;18.30;;;;;;;6.87;75.80;98315.78;5029009;22;21275;-75
2023/03/21 05:37:37;;;;;;;21.20;19.70;;;;;;;6.73;75.10;98305.38;5043701;28;20040;-74
2023/03/21 05:40:06;;;;;;;22.75;21.15;;;;;;;7.02;74.72;98344.09;5027423;28;20025;-75
2023/03/21 05:42:32;;;;;;;46.17;41.55;;;;;;;6.98;74.89;98351.72;5020853;28;20535;-75
2023/03/21 05:44:59;;;;;;;87.47;79.32;;;;;;;6.72;76.00;98350.03;5048620;28;20115;-74
2023/03/21 05:47:28;;;;;;;43.80;40.65;;;;;;;6.85;77.60;98349.97;5012567;28;20510;-74
2023/03/21 05:49:56;;;;;;;54.80;50.15;;;;;;;7.02;75.58;98354.78;4998308;28;20030;-74
2023/03/21 05:52:22;;;;;;;36.53;34.20;;;;;;;6.72;78.13;98360.75;5045486;28;20044;-72
2023/03/21 05:54:48;;;;;;;44.47;41.28;;;;;;;6.75;77.70;98354.97;5033535;28;20395;-73
2023/03/21 05:57:14;;;;;;;43.42;39.75;;;;;;;6.90;77.41;98358.19;5026321;28;20029;-74
2023/03/21 05:59:56;;;;;;;45.03;41.58;;;;;;;7.06;76.94;98356.81;5024735;28;20064;-75
2023/03/21 06:02:21;;;;;;;233.48;210.25;;;;;;;7.01;76.52;98358.50;5023925;28;20030;-74
2023/03/21 06:04:49;;;;;;;74.60;67.55;;;;;;;7.15;74.45;98365.38;5024764;28;20025;-75
2023/03/21 06:07:15;;;;;;;31.58;28.98;;;;;;;7.26;75.09;98367.38;5027950;28;20110;-73
2023/03/21 06:09:41;;;;;;;34.55;31.95;;;;;;;7.26;74.60;98370.06;5023508;28;20060;-74
2023/03/21 06:12:06;;;;;;;20.75;19.27;;;;;;;7.37;74.44;98367.47;5036780;28;20116;-73
2023/03/21 06:15:01;;;;;;;21.23;19.25;;;;;;;7.41;73.69;98370.53;5027774;28;20052;-73
2023/03/21 06:17:30;;;;;;;18.65;17.00;;;;;;;7.48;73.76;98366.75;5022097;28;20045;-73
2023/03/21 06:20:03;;;;;;;18.75;17.15;;;;;;;7.63;73.35;98369.09;5025574;28;20029;-74
2023/03/21 06:22:37;;;;;;;17.23;15.73;;;;;;;7.84;72.95;98365.97;5020741;28;20515;-73
2023/03/21 06:25:03;;;;;;;23.35;21.35;;;;;;;7.63;73.71;98363.72;5032470;28;20040;-74
2023/03/21 06:27:29;;;;;;;21.13;18.45;;;;;;;7.71;72.83;98366.09;5029403;28;20025;-74
2023/03/21 06:29:56;;;;;;;20.38;18.35;;;;;;;7.86;72.13;98355.84;5026042;28;20033;-74
2023/03/21 06:32:22;;;;;;;17.35;14.45;;;;;;;7.84;72.40;98365.97;5022576;28;20083;-74
2023/03/21 06:34:53;;;;;;;17.17;14.00;;;;;;;7.73;72.51;98374.75;5022163;28;20065;-74
2023/03/21 06:37:18;;;;;;;16.77;15.18;;;;;;;7.72;72.48;98362.41;5019186;28;20535;-74
2023/03/21 06:39:45;;;;;;;18.85;16.98;;;;;;;7.95;72.77;98362.56;5001092;28;20032;-74
2023/03/21 06:42:11;;;;;;;15.70;12.88;;;;;;;8.05;71.45;98370.88;5041077;28;20040;-74
2023/03/21 06:44:37;;;;;;;14.15;12.60;;;;;;;8.03;72.05;98364.94;5021110;28;20163;-74
2023/03/21 06:47:06;;;;;;;14.13;11.82;;;;;;;8.03;71.66;98359.56;5037150;28;20029;-74
2023/03/21 06:49:32;;;;;;;12.82;11.52;;;;;;;8.17;71.07;98368.25;5020683;28;20109;-74
2023/03/21 06:52:04;;;;;;;14.20;12.77;;;;;;;8.15;72.16;98368.50;5009484;28;20056;-74
2023/03/21 06:54:30;;;;;;;13.50;12.20;;;;;;;8.21;72.16;98362.22;5028621;28;20092;-74
2023/03/21 06:56:59;;;;;;;12.63;11.27;;;;;;;8.15;72.05;98365.81;5014319;28;20028;-74
2023/03/21 06:59:28;;;;;;;10.85;9.85;;;;;;;8.43;70.71;98369.84;5003036;28;20091;-74
2023/03/21 07:01:58;;;;;;;12.68;11.57;;;;;;;8.24;71.47;98367.16;5011081;28;20470;-74
2023/03/21 07:04:25;;;;;;;13.63;12.27;;;;;;;8.40;71.00;98371.13;5019374;28;20049;-73
2023/03/21 07:06:52;;;;;;;11.68;10.55;;;;;;;8.63;70.35;98365.03;5052216;28;20036;-74
2023/03/21 07:09:23;;;;;;;10.18;9.18;;;;;;;8.31;70.89;98372.47;5018762;28;20064;-72
2023/03/21 07:11:52;;;;;;;10.20;9.20;;;;;;;8.42;69.86;98378.94;4996381;28;20041;-72
2023/03/21 07:14:18;;;;;;;21.02;13.40;;;;;;;8.58;71.08;98370.25;5044907;28;20021;-74
2023/03/21 07:16:44;;;;;;;14.88;9.80;;;;;;;8.80;69.03;98371.38;5023873;28;20021;-74
2023/03/21 07:19:09;;;;;;;9.68;7.75;;;;;;;8.68;68.99;98373.22;5038342;28;20410;-74
2023/03/21 07:21:34;;;;;;;8.95;7.57;;;;;;;8.35;69.99;98363.72;5023864;28;20076;-75
2023/03/21 07:24:00;;;;;;;9.10;7.80;;;;;;;8.77;69.08;98374.53;5006682;28;20060;-73
2023/03/21 07:26:25;;;;;;;7.20;6.13;;;;;;;8.75;67.67;98368.59;5022455;28;20487;-73
2023/03/21 07:28:51;;;;;;;9.40;6.93;;;;;;;9.00;68.01;98369.25;5019154;28;20033;-74
2023/03/21 07:31:16;;;;;;;8.63;6.40;;;;;;;8.88;67.46;98363.00;5024125;28;20044;-74
2023/03/21 07:33:42;;;;;;;7.78;6.53;;;;;;;9.02;67.81;98359.91;5022194;28;20111;-75
2023/03/21 07:36:11;;;;;;;9.10;6.10;;;;;;;9.32;66.81;98354.47;5004304;28;20498;-74
2023/03/21 07:38:37;;;;;;;9.65;6.75;;;;;;;9.51;66.49;98364.06;5019240;28;20017;-73
2023/03/21 07:41:02;;;;;;;7.78;6.10;;;;;;;9.48;65.87;98353.75;5028366;28;20040;-74
2023/03/21 07:43:31;;;;;;;9.13;5.90;;;;;;;9.34;67.81;98363.09;5017589;28;20026;-74
2023/03/21 07:45:57;;;;;;;8.77;5.15;;;;;;;9.28;65.05;98368.59;5021420;28;20034;-73
2023/03/21 07:48:25;;;;;;;7.88;4.90;;;;;;;9.11;66.13;98351.50;5031143;28;20663;-74
2023/03/21 07:50:50;;;;;;;8.10;5.60;;;;;;;9.30;65.43;98361.94;5021359;28;20042;-74
2023/03/21 07:53:16;;;;;;;8.95;4.65;;;;;;;9.36;65.97;98361.00;5039135;28;20027;-74
2023/03/21 07:55:41;;;;;;;10.23;5.43;;;;;;;9.44;65.46;98362.53;5040474;28;20141;-74
2023/03/21 07:58:06;;;;;;;6.93;5.18;;;;;;;9.56;64.68;98361.50;5019231;28;20045;-73
2023/03/21 08:00:32;;;;;;;7.70;4.93;;;;;;;9.54;65.81;98368.97;5052229;28;20037;-77
2023/03/21 08:02:58;;;;;;;7.07;5.10;;;;;;;9.92;64.98;98365.00;5018894;28;20034;-74
2023/03/21 08:05:28;;;;;;;7.80;5.07;;;;;;;10.23;65.28;98365.41;5042703;28;20467;-74
2023/03/21 08:07:54;;;;;;;6.63;4.90;;;;;;;10.23;63.62;98367.28;5029687;28;20490;-74
2023/03/21 08:10:20;;;;;;;7.47;5.72;;;;;;;10.37;64.83;98364.09;5041758;28;20025;-73
2023/03/21 08:12:45;;;;;;;10.88;5.97;;;;;;;10.35;65.22;98376.16;5027029;28;20043;-74
2023/03/21 08:15:12;;;;;;;7.82;5.15;;;;;;;10.82;62.38;98372.25;5023015;28;20032;-74
2023/03/21 08:17:38;;;;;;;7.35;5.20;;;;;;;10.75;61.91;98368.03;5037187;28;20412;-74
2023/03/21 08:20:08;;;;;;;7.35;4.80;;;;;;;11.05;62.57;98369.41;5021654;28;20022;-74
2023/03/21 08:22:34;;;;;;;7.75;4.72;;;;;;;11.03;62.50;98376.09;5024352;28;20407;-74
2023/03/21 08:25:00;;;;;;;8.18;4.75;;;;;;;11.01;61.89;98360.19;5040071;28;20479;-74
2023/03/21 08:27:26;;;;;;;6.68;4.57;;;;;;;10.85;61.23;98365.56;5037197;28;20064;-74
2023/03/21 08:29:51;;;;;;;6.68;4.78;;;;;;;10.70;61.58;98358.00;5041438;28;20052;-74
2023/03/21 08:32:18;;;;;;;11.65;5.38;;;;;;;10.85;61.36;98366.34;5027352;28;20047;-74
2023/03/21 08:34:43;;;;;;;7.57;5.00;;;;;;;11.19;61.32;98361.84;5030342;28;20091;-74
2023/03/21 08:37:08;;;;;;;10.13;6.00;;;;;;;10.63;64.31;98361.88;5010605;28;20479;-74
2023/03/21 08:39:34;;;;;;;9.32;5.65;;;;;;;10.22;63.25;98353.00;5030345;28;20036;-74
2023/03/21 08:41:59;;;;;;;10.38;5.72;;;;;;;10.84;62.97;98347.75;4999429;28;20042;-74
2023/03/21 08:44:25;;;;;;;12.80;7.22;;;;;;;11.22;62.27;98355.97;5042420;28;20029;-74
2023/03/21 08:46:51;;;;;;;11.50;6.57;;;;;;;11.07;62.16;98348.44;5027043;28;20090;-74
2023/03/21 08:49:16;;;;;;;9.77;4.90;;;;;;;11.18;62.01;98352.09;5023203;28;20025;-74
2023/03/21 08:51:44;;;;;;;8.27;5.03;;;;;;;11.09;61.23;98346.31;5036989;28;20469;-74
2023/03/21 08:54:20;;;;;;;7.82;4.72;;;;;;;11.16;60.70;98345.31;5041965;28;20021;-74
2023/03/21 08:56:45;;;;;;;8.95;5.05;;;;;;;10.83;62.45;98341.53;5023787;28;20092;-74
2023/03/21 08:59:10;;;;;;;6.05;4.82;;;;;;;11.41;59.73;98337.66;5015179;28;20037;-75
2023/03/21 09:01:36;;;;;;;12.82;5.03;;;;;;;11.26;61.09;98334.72;5026269;28;20116;-74
2023/03/21 09:04:01;;;;;;;10.38;5.45;;;;;;;11.34;59.78;98334.31;5032630;28;20033;-75
2023/03/21 09:06:28;;;;;;;11.90;6.32;;;;;;;11.01;61.12;98337.81;5016277;28;20033;-74
2023/03/21 09:08:55;;;;;;;10.27;5.30;;;;;;;11.56;60.91;98329.78;5010508;28;20030;-74
2023/03/21 09:11:21;;;;;;;12.43;6.78;;;;;;;11.79;58.84;98329.59;5042660;28;20048;-75
2023/03/21 09:13:46;;;;;;;8.32;5.78;;;;;;;11.75;59.92;98328.47;5024446;28;20036;-75
2023/03/21 09:16:12;;;;;;;29.45;18.40;;;;;;;11.50;60.02;98334.31;5032856;28;20044;-75
2023/03/21 09:18:48;;;;;;;12.15;7.47;;;;;;;11.76;59.52;98325.53;5024171;28;20055;-74
2023/03/21 09:21:16;;;;;;;9.95;6.03;;;;;;;11.51;59.62;98341.31;5032691;28;20049;-75
2023/03/21 09:23:41;;;;;;;11.77;5.80;;;;;;;11.64;60.80;98341.00;4994495;28;20033;-75
2023/03/21 09:26:08;;;;;;;14.93;8.30;;;;;;;11.53;60.16;98336.47;5009700;28;20030;-75
2023/03/21 09:28:34;;;;;;;10.32;5.75;;;;;;;11.22;62.78;98338.97;5045935;28;20514;-74
2023/03/21 09:31:01;;;;;;;27.42;6.32;;;;;;;11.24;61.58;98336.84;5041507;28;20110;-74
2023/03/21 09:33:28;;;;;;;7.50;5.20;;;;;;;11.32;61.38;98341.84;5021847;28;20032;-74
2023/03/21 09:35:54;;;;;;;7.35;4.70;;;;;;;11.43;61.97;98338.22;5046762;28;20398;-75
2023/03/21 09:38:21;;;;;;;9.30;5.53;;;;;;;12.12;59.43;98340.31;5046726;28;20104;-74
2023/03/21 09:40:59;;;;;;;7.72;5.20;;;;;;;12.15;58.65;98337.13;5033284;28;20045;-74
2023/03/21 09:43:46;;;;;;;9.40;5.07;;;;;;;12.53;57.46;98340.81;5014228;28;20092;-72
2023/03/21 09:46:32;;;;;;;8.18;5.88;;;;;;;12.07;57.25;98337.56;5016966;28;20044;-73
2023/03/21 09:49:01;;;;;;;8.50;5.20;;;;;;;12.29;58.72;98335.69;5023031;28;20069;-73
2023/03/21 09:51:34;;;;;;;9.18;4.85;;;;;;;12.28;58.56;98331.34;5040126;28;20494;-73
2023/03/21 09:54:02;;;;;;;9.82;5.30;;;;;;;12.31;59.81;98336.25;5011764;28;20038;-73
2023/03/21 09:56:29;;;;;;;7.72;4.75;;;;;;;12.07;56.85;98321.34;5023366;28;20033;-73
2023/03/21 09:58:58;;;;;;;8.52;5.20;;;;;;;12.09;59.79;98329.22;5045213;28;20124;-75
2023/03/21 10:01:27;;;;;;;10.38;5.43;;;;;;;11.64;59.93;98326.69;5013821;28;20025;-74
2023/03/21 10:03:53;;;;;;;7.63;5.05;;;;;;;12.05;58.35;98319.97;5033019;28;20108;-74
2023/03/21 10:06:27;;;;;;;9.43;5.22;;;;;;;12.25;57.38;98322.94;5046502;28;20071;-74
2023/03/21 10:08:55;;;;;;;10.18;5.47;;;;;;;12.19;59.32;98319.34;5042738;28;20037;-74
2023/03/21 10:11:26;;;;;;;12.90;6.93;;;;;;;12.49;58.81;98314.31;5039496;28;20021;-74
2023/03/21 10:13:56;;;;;;;12.02;5.60;;;;;;;11.96;58.41;98310.69;5025872;28;20372;-74
2023/03/21 10:16:26;;;;;;;7.07;4.60;;;;;;;11.82;57.37;98312.09;5025217;28;20038;-74
2023/03/21 10:18:53;;;;;;;10.38;5.03;;;;;;;11.82;59.25;98302.13;5037968;28;20083;-74
2023/03/21 10:21:21;;;;;;;8.50;5.35;;;;;;;12.10;58.77;98301.97;5040658;28;20021;-74
2023/03/21 10:23:48;;;;;;;7.78;5.30;;;;;;;12.41;58.49;98297.75;5039910;28;20147;-74
2023/03/21 10:26:13;;;;;;;8.40;5.20;;;;;;;12.15;57.70;98291.22;5026238;28;20021;-74
2023/03/21 10:28:40;;;;;;;7.90;4.75;;;;;;;12.54;56.90;98291.94;5022019;28;20506;-74
2023/03/21 10:31:07;;;;;;;7.93;4.75;;;;;;;12.55;55.57;98292.75;5045383;28;20112;-74
2023/03/21 10:33:36;;;;;;;7.32;4.65;;;;;;;12.19;57.41;98286.94;5045037;28;20040;-74
2023/03/21 10:36:06;;;;;;;9.52;4.75;;;;;;;12.55;58.91;98284.66;5038463;28;20394;-74
2023/03/21 10:38:32;;;;;;;7.93;4.43;;;;;;;12.94;55.30;98280.69;5035640;28;20504;-74
2023/03/21 10:40:57;;;;;;;10.00;5.20;;;;;;;12.46;56.51;98276.97;5022706;28;20115;-74
2023/03/21 10:43:25;;;;;;;7.30;4.78;;;;;;;12.10;54.81;98277.66;5040036;28;20064;-74
2023/03/21 10:45:52;;;;;;;8.52;4.85;;;;;;;12.67;56.76;98266.41;5026018;28;20151;-74
2023/03/21 10:48:18;;;;;;;9.13;5.35;;;;;;;12.18;55.64;98262.91;5039866;28;20124;-74
2023/03/21 10:50:46;;;;;;;9.00;5.38;;;;;;;12.36;55.49;98270.66;5039167;28;20064;-74
2023/03/21 10:53:22;;;;;;;7.95;4.80;;;;;;;12.45;57.39;98269.97;5021578;28;20060;-73
2023/03/21 10:55:50;;;;;;;9.23;5.57;;;;;;;12.75;58.42;98268.63;5015741;28;20045;-74
2023/03/21 10:58:18;;;;;;;12.02;5.65;;;;;;;13.18;58.57;98257.69;5014113;28;20063;-74
2023/03/21 11:00:45;;;;;;;9.90;5.60;;;;;;;12.89;56.87;98276.06;5042433;28;20049;-74
2023/03/21 11:03:43;;;;;;;10.30;5.20;;;;;;;13.09;56.27;98265.44;5027226;28;20032;-74
2023/03/21 11:06:16;;;;;;;9.05;5.15;;;;;;;12.73;55.65;98271.59;5004284;28;20076;-73
2023/03/21 11:08:54;;;;;;;8.23;4.60;;;;;;;12.40;55.08;98266.38;5010192;28;20486;-73
2023/03/21 11:11:40;;;;;;;7.47;4.15;;;;;;;12.86;54.50;98270.38;5038255;28;20037;-73
2023/03/21 11:14:12;;;;;;;8.20;4.65;;;;;;;12.97;54.70;98267.50;5041215;28;20494;-73
2023/03/21 11:16:39;;;;;;;8.30;5.15;;;;;;;13.43;55.34;98260.56;4998889;28;20560;-74
2023/03/21 11:19:19;;;;;;;7.80;4.65;;;;;;;13.05;54.38;98258.06;5011914;28;20028;-74
2023/03/21 11:21:45;;;;;;;7.05;4.55;;;;;;;12.95;52.16;98252.59;5008027;28;20123;-74
2023/03/21 11:24:16;;;;;;;11.70;4.70;;;;;;;13.45;53.99;98249.44;5028217;28;20116;-74
2023/03/21 11:26:43;;;;;;;10.27;4.90;;;;;;;13.55;54.59;98252.22;5041561;28;20112;-74
2023/03/21 11:29:24;;;;;;;6.05;4.10;;;;;;;13.78;51.50;98240.97;5038077;28;20481;-74
2023/03/21 11:31:50;;;;;;;7.10;4.78;;;;;;;13.39;52.88;98248.63;5039446;28;20037;-74
2023/03/21 11:34:30;;;;;;;8.85;5.15;;;;;;;12.95;53.54;98249.91;5025024;28;20033;-74
2023/03/21 11:37:00;;;;;;;9.05;5.22;;;;;;;13.49;54.37;98232.44;5022241;28;20025;-73
2023/03/21 11:39:33;;;;;;;8.20;4.40;;;;;;;13.45;53.40;98242.16;5021880;28;20075;-73
2023/03/21 11:41:58;;;;;;;9.43;4.70;;;;;;;13.48;53.45;98232.72;5018958;28;20044;-73